sensor_id;sensor_type;location;lat;lon;timestamp;pressure;altitude;pressure_sealevel;temperature;humidity
74868;BME280;63419;42.262;12.210;2023-07-16T00:01:52;97543.97;;;28.75;100.00
74868;BME280;63419;42.262;12.210;2023-07-16T00:04:18;97541.28;;;28.82;100.00
74868;BME280;63419;42.262;12.210;2023-07-16T00:06:45;97543.19;;;28.68;100.00
74868;BME280;63419;42.262;12.210;2023-07-16T00:09:11;97538.16;;;28.60;100.00
74868;BME280;63419;42.262;12.210;2023-07-16T00:11:37;97537.28;;;28.66;100.00
74868;BME280;63419;42.262;12.210;2023-07-16T00:14:03;97533.19;;;28.70;100.00
74868;BME280;63419;42.262;12.210;2023-07-16T00:16:29;97532.47;;;28.56;100.00
74868;BME280;63419;42.262;12.210;2023-07-16T00:18:55;97534.91;;;28.51;100.00
74868;BME280;63419;42.262;12.210;2023-07-16T00:21:21;97534.34;;;28.36;100.00
74868;BME280;63419;42.262;12.210;2023-07-16T00:23:46;97523.69;;;28.49;100.00
74868;BME280;63419;42.262;12.210;2023-07-16T00:26:13;97528.00;;;28.43;100.00
74868;BME280;63419;42.262;12.210;2023-07-16T00:28:39;97532.75;;;28.35;100.00
74868;BME280;63419;42.262;12.210;2023-07-16T00:31:05;97530.59;;;28.57;100.00
74868;BME280;63419;42.262;12.210;2023-07-16T00:33:31;97522.44;;;28.52;100.00
74868;BME280;63419;42.262;12.210;2023-07-16T00:35:57;97526.69;;;28.21;100.00
74868;BME280;63419;42.262;12.210;2023-07-16T00:38:23;97532.03;;;28.07;100.00
74868;BME280;63419;42.262;12.210;2023-07-16T00:40:49;97537.50;;;28.19;100.00
74868;BME280;63419;42.262;12.210;2023-07-16T00:43:15;97532.47;;;27.98;100.00
74868;BME280;63419;42.262;12.210;2023-07-16T00:45:42;97532.06;;;27.94;100.00
74868;BME280;63419;42.262;12.210;2023-07-16T00:48:11;97522.25;;;28.01;100.00
74868;BME280;63419;42.262;12.210;2023-07-16T00:50:39;97516.75;;;28.09;100.00
74868;BME280;63419;42.262;12.210;2023-07-16T00:53:08;97510.88;;;27.94;100.00
74868;BME280;63419;42.262;12.210;2023-07-16T00:55:36;97512.66;;;28.00;100.00
74868;BME280;63419;42.262;12.210;2023-07-16T00:58:07;97512.50;;;27.75;100.00
74868;BME280;63419;42.262;12.210;2023-07-16T01:00:35;97512.25;;;28.03;100.00
74868;BME280;63419;42.262;12.210;2023-07-16T01:03:06;97503.00;;;28.26;100.00
74868;BME280;63419;42.262;12.210;2023-07-16T01:08:58;97504.06;;;28.57;100.00
74868;BME280;63419;42.262;12.210;2023-07-16T01:11:27;97506.66;;;28.25;100.00
74868;BME280;63419;42.262;12.210;2023-07-16T01:13:55;97504.28;;;28.10;100.00
74868;BME280;63419;42.262;12.210;2023-07-16T01:16:23;97511.75;;;28.26;100.00
74868;BME280;63419;42.262;12.210;2023-07-16T01:18:50;97509.44;;;28.43;100.00
74868;BME280;63419;42.262;12.210;2023-07-16T01:21:21;97504.34;;;28.42;100.00
74868;BME280;63419;42.262;12.210;2023-07-16T01:27:41;97496.50;;;28.22;100.00
74868;BME280;63419;42.262;12.210;2023-07-16T01:30:15;97491.03;;;28.03;100.00
74868;BME280;63419;42.262;12.210;2023-07-16T01:32:44;97488.34;;;28.17;100.00
74868;BME280;63419;42.262;12.210;2023-07-16T01:35:12;97505.97;;;26.57;100.00
74868;BME280;63419;42.262;12.210;2023-07-16T01:37:41;97504.75;;;26.53;100.00
74868;BME280;63419;42.262;12.210;2023-07-16T01:40:09;97491.19;;;27.16;100.00
74868;BME280;63419;42.262;12.210;2023-07-16T01:42:35;97494.22;;;26.73;100.00
74868;BME280;63419;42.262;12.210;2023-07-16T01:45:01;97493.81;;;27.23;100.00
74868;BME280;63419;42.262;12.210;2023-07-16T01:50:33;97493.81;;;27.50;100.00
74868;BME280;63419;42.262;12.210;2023-07-16T01:52:59;97501.97;;;27.22;100.00
74868;BME280;63419;42.262;12.210;2023-07-16T01:55:25;97489.38;;;27.37;100.00
74868;BME280;63419;42.262;12.210;2023-07-16T01:57:51;97499.13;;;26.90;100.00
74868;BME280;63419;42.262;12.210;2023-07-16T02:00:17;97487.72;;;26.69;100.00
74868;BME280;63419;42.262;12.210;2023-07-16T02:02:43;97484.88;;;26.97;100.00
74868;BME280;63419;42.262;12.210;2023-07-16T02:05:09;97484.28;;;26.89;100.00
74868;BME280;63419;42.262;12.210;2023-07-16T02:07:35;97491.63;;;27.27;100.00
74868;BME280;63419;42.262;12.210;2023-07-16T02:10:01;97488.13;;;27.26;100.00
74868;BME280;63419;42.262;12.210;2023-07-16T02:12:26;97486.66;;;27.64;100.00
74868;BME280;63419;42.262;12.210;2023-07-16T02:14:52;97491.81;;;27.19;100.00
74868;BME280;63419;42.262;12.210;2023-07-16T02:17:18;97488.75;;;26.88;100.00
74868;BME280;63419;42.262;12.210;2023-07-16T02:19:44;97489.78;;;26.94;100.00
74868;BME280;63419;42.262;12.210;2023-07-16T02:22:09;97487.31;;;27.06;100.00
74868;BME280;63419;42.262;12.210;2023-07-16T02:24:35;97495.47;;;27.11;100.00
74868;BME280;63419;42.262;12.210;2023-07-16T02:27:02;97487.72;;;27.09;100.00
74868;BME280;63419;42.262;12.210;2023-07-16T02:29:27;97479.19;;;27.21;100.00
74868;BME280;63419;42.262;12.210;2023-07-16T02:31:53;97482.66;;;27.28;100.00
74868;BME280;63419;42.262;12.210;2023-07-16T02:34:19;97481.22;;;27.32;100.00
74868;BME280;63419;42.262;12.210;2023-07-16T02:36:45;97482.44;;;27.43;100.00
74868;BME280;63419;42.262;12.210;2023-07-16T02:39:11;97480.00;;;27.34;100.00
74868;BME280;63419;42.262;12.210;2023-07-16T02:41:36;97478.38;;;27.33;100.00
74868;BME280;63419;42.262;12.210;2023-07-16T02:44:05;97479.56;;;27.38;100.00
74868;BME280;63419;42.262;12.210;2023-07-16T02:46:32;97473.44;;;27.50;100.00
74868;BME280;63419;42.262;12.210;2023-07-16T02:48:57;97480.41;;;27.31;100.00
74868;BME280;63419;42.262;12.210;2023-07-16T02:51:23;97483.66;;;27.27;100.00
74868;BME280;63419;42.262;12.210;2023-07-16T02:53:49;97478.78;;;27.24;100.00
74868;BME280;63419;42.262;12.210;2023-07-16T02:56:16;97476.31;;;27.09;100.00
74868;BME280;63419;42.262;12.210;2023-07-16T02:58:42;97475.72;;;27.27;100.00
74868;BME280;63419;42.262;12.210;2023-07-16T03:01:08;97483.66;;;27.27;100.00
74868;BME280;63419;42.262;12.210;2023-07-16T03:03:34;97492.84;;;27.31;100.00
74868;BME280;63419;42.262;12.210;2023-07-16T03:06:01;97482.44;;;27.23;100.00
74868;BME280;63419;42.262;12.210;2023-07-16T03:08:27;97482.44;;;27.43;100.00
74868;BME280;63419;42.262;12.210;2023-07-16T03:10:56;97488.94;;;27.53;100.00
74868;BME280;63419;42.262;12.210;2023-07-16T03:13:23;97489.97;;;27.46;100.00
74868;BME280;63419;42.262;12.210;2023-07-16T03:15:49;97501.16;;;27.54;100.00
74868;BME280;63419;42.262;12.210;2023-07-16T03:18:18;97493.25;;;27.28;100.00
74868;BME280;63419;42.262;12.210;2023-07-16T03:20:44;97490.16;;;27.44;100.00
74868;BME280;63419;42.262;12.210;2023-07-16T03:23:10;97487.72;;;27.43;100.00
74868;BME280;63419;42.262;12.210;2023-07-16T03:25:36;97489.97;;;27.52;100.00
74868;BME280;63419;42.262;12.210;2023-07-16T03:28:02;97485.06;;;27.56;100.00
74868;BME280;63419;42.262;12.210;2023-07-16T03:30:29;97484.41;;;27.67;100.00
74868;BME280;63419;42.262;12.210;2023-07-16T03:32:55;97484.34;;;27.94;100.00
74868;BME280;63419;42.262;12.210;2023-07-16T03:35:21;97488.75;;;27.42;100.00
74868;BME280;63419;42.262;12.210;2023-07-16T03:37:47;97486.13;;;27.42;100.00
74868;BME280;63419;42.262;12.210;2023-07-16T03:40:18;97484.22;;;27.56;100.00
74868;BME280;63419;42.262;12.210;2023-07-16T03:42:44;97488.03;;;27.80;100.00
74868;BME280;63419;42.262;12.210;2023-07-16T03:45:11;97492.59;;;28.18;100.00
74868;BME280;63419;42.262;12.210;2023-07-16T03:47:37;97493.66;;;28.17;100.00
74868;BME280;63419;42.262;12.210;2023-07-16T03:50:03;97481.22;;;28.10;100.00
74868;BME280;63419;42.262;12.210;2023-07-16T03:52:29;97495.78;;;27.81;100.00
74868;BME280;63419;42.262;12.210;2023-07-16T03:54:55;97494.94;;;28.01;100.00
74868;BME280;63419;42.262;12.210;2023-07-16T03:57:21;97503.16;;;27.66;100.00
74868;BME280;63419;42.262;12.210;2023-07-16T03:59:46;97506.50;;;27.28;100.00
74868;BME280;63419;42.262;12.210;2023-07-16T04:02:12;97492.56;;;27.72;100.00
74868;BME280;63419;42.262;12.210;2023-07-16T04:04:38;97497.84;;;27.79;100.00
74868;BME280;63419;42.262;12.210;2023-07-16T04:07:05;97500.97;;;27.56;100.00
74868;BME280;63419;42.262;12.210;2023-07-16T04:09:30;97506.50;;;27.28;100.00
74868;BME280;63419;42.262;12.210;2023-07-16T04:11:56;97502.38;;;27.25;100.00
74868;BME280;63419;42.262;12.210;2023-07-16T04:14:22;97498.34;;;27.29;100.00
74868;BME280;63419;42.262;12.210;2023-07-16T04:16:48;97498.72;;;27.53;100.00
74868;BME280;63419;42.262;12.210;2023-07-16T04:19:15;97499.66;;;27.85;100.00
74868;BME280;63419;42.262;12.210;2023-07-16T04:21:41;97497.81;;;27.99;100.00
74868;BME280;63419;42.262;12.210;2023-07-16T04:24:07;97494.28;;;28.05;100.00
74868;BME280;63419;42.262;12.210;2023-07-16T04:26:32;97501.50;;;27.85;100.00
74868;BME280;63419;42.262;12.210;2023-07-16T04:28:58;97493.72;;;27.97;100.00
74868;BME280;63419;42.262;12.210;2023-07-16T04:31:24;97493.69;;;28.03;100.00
74868;BME280;63419;42.262;12.210;2023-07-16T04:33:50;97494.06;;;28.14;100.00
74868;BME280;63419;42.262;12.210;2023-07-16T04:36:16;97492.38;;;28.26;100.00
74868;BME280;63419;42.262;12.210;2023-07-16T04:38:42;97490.59;;;28.52;100.00
74868;BME280;63419;42.262;12.210;2023-07-16T04:41:08;97491.88;;;28.42;100.00
74868;BME280;63419;42.262;12.210;2023-07-16T04:43:34;97492.47;;;28.44;100.00
74868;BME280;63419;42.262;12.210;2023-07-16T04:46:00;97489.91;;;28.31;100.00
74868;BME280;63419;42.262;12.210;2023-07-16T04:48:26;97483.69;;;28.51;100.00
74868;BME280;63419;42.262;12.210;2023-07-16T04:50:52;97484.88;;;28.86;100.00
74868;BME280;63419;42.262;12.210;2023-07-16T04:53:18;97486.69;;;29.18;100.00
74868;BME280;63419;42.262;12.210;2023-07-16T04:55:44;97484.75;;;29.69;100.00
74868;BME280;63419;42.262;12.210;2023-07-16T04:58:14;97496.72;;;29.59;100.00
74868;BME280;63419;42.262;12.210;2023-07-16T05:00:40;97507.44;;;29.02;100.00
74868;BME280;63419;42.262;12.210;2023-07-16T05:03:06;97502.84;;;29.41;100.00
74868;BME280;63419;42.262;12.210;2023-07-16T05:05:32;97508.09;;;29.23;100.00
74868;BME280;63419;42.262;12.210;2023-07-16T05:07:58;97504.78;;;29.28;100.00
74868;BME280;63419;42.262;12.210;2023-07-16T05:10:24;97519.75;;;28.97;100.00
74868;BME280;63419;42.262;12.210;2023-07-16T05:12:50;97513.75;;;29.33;100.00
74868;BME280;63419;42.262;12.210;2023-07-16T05:15:16;97527.94;;;29.46;100.00
74868;BME280;63419;42.262;12.210;2023-07-16T05:17:42;97511.22;;;30.01;100.00
74868;BME280;63419;42.262;12.210;2023-07-16T05:20:08;97540.91;;;28.33;100.00
74868;BME280;63419;42.262;12.210;2023-07-16T05:22:35;97522.06;;;29.18;100.00
74868;BME280;63419;42.262;12.210;2023-07-16T05:25:02;97518.78;;;29.60;100.00
74868;BME280;63419;42.262;12.210;2023-07-16T05:27:28;97511.22;;;30.01;100.00
74868;BME280;63419;42.262;12.210;2023-07-16T05:29:54;97519.22;;;29.57;100.00
74868;BME280;63419;42.262;12.210;2023-07-16T05:32:21;97541.28;;;28.43;100.00
74868;BME280;63419;42.262;12.210;2023-07-16T05:34:47;97566.97;;;27.71;100.00
74868;BME280;63419;42.262;12.210;2023-07-16T05:37:13;97547.66;;;28.74;100.00
74868;BME280;63419;42.262;12.210;2023-07-16T05:39:39;97542.16;;;29.33;100.00
74868;BME280;63419;42.262;12.210;2023-07-16T05:42:05;97526.97;;;30.02;100.00
74868;BME280;63419;42.262;12.210;2023-07-16T05:44:31;97548.78;;;28.92;100.00
74868;BME280;63419;42.262;12.210;2023-07-16T05:46:57;97570.44;;;27.71;100.00
74868;BME280;63419;42.262;12.210;2023-07-16T05:49:25;97560.34;;;29.04;100.00
74868;BME280;63419;42.262;12.210;2023-07-16T05:51:52;97570.19;;;28.52;100.00
74868;BME280;63419;42.262;12.210;2023-07-16T05:54:19;97576.66;;;28.24;100.00
74868;BME280;63419;42.262;12.210;2023-07-16T05:56:45;97542.09;;;29.83;100.00
74868;BME280;63419;42.262;12.210;2023-07-16T05:59:11;97544.34;;;29.86;100.00
74868;BME280;63419;42.262;12.210;2023-07-16T06:01:37;97562.44;;;28.57;100.00
74868;BME280;63419;42.262;12.210;2023-07-16T06:04:03;97572.66;;;28.01;100.00
74868;BME280;63419;42.262;12.210;2023-07-16T06:06:30;97571.41;;;28.04;100.00
74868;BME280;63419;42.262;12.210;2023-07-16T06:08:56;97578.41;;;27.65;100.00
74868;BME280;63419;42.262;12.210;2023-07-16T06:11:22;97580.41;;;27.63;100.00
74868;BME280;63419;42.262;12.210;2023-07-16T06:13:48;97578.13;;;28.06;100.00
74868;BME280;63419;42.262;12.210;2023-07-16T06:16:14;97567.34;;;28.53;100.00
74868;BME280;63419;42.262;12.210;2023-07-16T06:18:40;97576.09;;;28.02;100.00
74868;BME280;63419;42.262;12.210;2023-07-16T06:21:06;97585.91;;;27.88;100.00
74868;BME280;63419;42.262;12.210;2023-07-16T06:23:32;97590.22;;;27.62;100.00
74868;BME280;63419;42.262;12.210;2023-07-16T06:25:58;97584.13;;;28.40;100.00
74868;BME280;63419;42.262;12.210;2023-07-16T06:28:24;97582.16;;;28.22;100.00
74868;BME280;63419;42.262;12.210;2023-07-16T06:30:50;97575.50;;;28.58;100.00
74868;BME280;63419;42.262;12.210;2023-07-16T06:33:19;97578.53;;;28.17;100.00
74868;BME280;63419;42.262;12.210;2023-07-16T06:35:46;97581.63;;;28.59;100.00
74868;BME280;63419;42.262;12.210;2023-07-16T06:38:15;97567.38;;;29.23;100.00
74868;BME280;63419;42.262;12.210;2023-07-16T06:40:49;97554.88;;;29.93;100.00
74868;BME280;63419;42.262;12.210;2023-07-16T06:43:16;97552.00;;;29.94;100.00
74868;BME280;63419;42.262;12.210;2023-07-16T06:45:42;97546.94;;;30.23;100.00
74868;BME280;63419;42.262;12.210;2023-07-16T06:48:08;97556.94;;;30.28;100.00
74868;BME280;63419;42.262;12.210;2023-07-16T06:50:34;97544.03;;;30.62;100.00
74868;BME280;63419;42.262;12.210;2023-07-16T06:53:00;97537.72;;;31.40;100.00
74868;BME280;63419;42.262;12.210;2023-07-16T06:55:26;97546.84;;;30.97;100.00
74868;BME280;63419;42.262;12.210;2023-07-16T06:57:52;97525.50;;;32.15;100.00
74868;BME280;63419;42.262;12.210;2023-07-16T07:00:18;97531.19;;;32.59;100.00
74868;BME280;63419;42.262;12.210;2023-07-16T07:02:44;97530.53;;;32.69;100.00
74868;BME280;63419;42.262;12.210;2023-07-16T07:05:10;97528.03;;;32.79;100.00
74868;BME280;63419;42.262;12.210;2023-07-16T07:07:36;97525.50;;;33.01;100.00
74868;BME280;63419;42.262;12.210;2023-07-16T07:10:02;97519.16;;;33.08;100.00
74868;BME280;63419;42.262;12.210;2023-07-16T07:12:28;97516.41;;;33.03;100.00
74868;BME280;63419;42.262;12.210;2023-07-16T07:14:54;97512.53;;;33.27;100.00
74868;BME280;63419;42.262;12.210;2023-07-16T07:17:20;97500.22;;;33.82;100.00
74868;BME280;63419;42.262;12.210;2023-07-16T07:19:45;97502.69;;;33.67;100.00
74868;BME280;63419;42.262;12.210;2023-07-16T07:22:11;97512.91;;;33.53;100.00
74868;BME280;63419;42.262;12.210;2023-07-16T07:24:37;97498.91;;;33.85;100.00
74868;BME280;63419;42.262;12.210;2023-07-16T07:27:04;97503.44;;;33.45;100.00
74868;BME280;63419;42.262;12.210;2023-07-16T07:29:30;97502.19;;;33.92;100.00
74868;BME280;63419;42.262;12.210;2023-07-16T07:31:56;97506.63;;;33.81;100.00
74868;BME280;63419;42.262;12.210;2023-07-16T07:34:21;97500.84;;;33.89;100.00
74868;BME280;63419;42.262;12.210;2023-07-16T07:36:47;97501.03;;;34.27;100.00
74868;BME280;63419;42.262;12.210;2023-07-16T07:39:14;97502.41;;;34.07;100.00
74868;BME280;63419;42.262;12.210;2023-07-16T07:41:40;97504.72;;;33.76;100.00
74868;BME280;63419;42.262;12.210;2023-07-16T07:44:06;97520.44;;;33.56;100.00
74868;BME280;63419;42.262;12.210;2023-07-16T07:46:31;97510.53;;;33.73;100.00
74868;BME280;63419;42.262;12.210;2023-07-16T07:48:57;97502.75;;;34.65;100.00
74868;BME280;63419;42.262;12.210;2023-07-16T07:51:23;97503.28;;;34.35;100.00
74868;BME280;63419;42.262;12.210;2023-07-16T07:53:49;97499.63;;;34.46;100.00
74868;BME280;63419;42.262;12.210;2023-07-16T07:56:15;97506.03;;;34.45;100.00
74868;BME280;63419;42.262;12.210;2023-07-16T07:58:41;97508.28;;;34.81;100.00
74868;BME280;63419;42.262;12.210;2023-07-16T08:01:07;97512.72;;;34.43;100.00
74868;BME280;63419;42.262;12.210;2023-07-16T08:03:34;97511.34;;;34.40;100.00
74868;BME280;63419;42.262;12.210;2023-07-16T08:06:00;97499.69;;;35.16;100.00
74868;BME280;63419;42.262;12.210;2023-07-16T08:08:26;97537.13;;;32.95;100.00
74868;BME280;63419;42.262;12.210;2023-07-16T08:10:54;97524.44;;;33.53;100.00
74868;BME280;63419;42.262;12.210;2023-07-16T08:13:20;97538.50;;;32.52;100.00
74868;BME280;63419;42.262;12.210;2023-07-16T08:15:46;97542.09;;;33.04;100.00
74868;BME280;63419;42.262;12.210;2023-07-16T08:18:13;97574.97;;;30.74;100.00
74868;BME280;63419;42.262;12.210;2023-07-16T08:20:39;97563.72;;;31.80;100.00
74868;BME280;63419;42.262;12.210;2023-07-16T08:23:06;97568.00;;;30.92;100.00
74868;BME280;63419;42.262;12.210;2023-07-16T08:25:32;97557.19;;;31.41;100.00
74868;BME280;63419;42.262;12.210;2023-07-16T08:27:58;97550.13;;;31.94;100.00
74868;BME280;63419;42.262;12.210;2023-07-16T08:30:24;97553.94;;;32.10;100.00
74868;BME280;63419;42.262;12.210;2023-07-16T08:32:50;97548.81;;;32.89;100.00
74868;BME280;63419;42.262;12.210;2023-07-16T08:35:16;97547.25;;;33.61;100.00
74868;BME280;63419;42.262;12.210;2023-07-16T08:37:46;97538.84;;;34.13;100.00
74868;BME280;63419;42.262;12.210;2023-07-16T08:40:15;97516.34;;;35.18;100.00
74868;BME280;63419;42.262;12.210;2023-07-16T08:42:45;97545.16;;;34.02;100.00
74868;BME280;63419;42.262;12.210;2023-07-16T08:45:15;97558.22;;;32.51;100.00
74868;BME280;63419;42.262;12.210;2023-07-16T08:47:41;97573.91;;;31.83;100.00
74868;BME280;63419;42.262;12.210;2023-07-16T08:50:09;97562.78;;;32.39;100.00
74868;BME280;63419;42.262;12.210;2023-07-16T08:52:35;97566.50;;;32.50;100.00
74868;BME280;63419;42.262;12.210;2023-07-16T08:55:01;97558.72;;;33.23;100.00
74868;BME280;63419;42.262;12.210;2023-07-16T08:57:28;97545.78;;;34.09;100.00
74868;BME280;63419;42.262;12.210;2023-07-16T08:59:56;97565.16;;;33.10;100.00
74868;BME280;63419;42.262;12.210;2023-07-16T09:02:23;97566.19;;;32.92;100.00
74868;BME280;63419;42.262;12.210;2023-07-16T09:04:49;97544.31;;;34.41;100.00
74868;BME280;63419;42.262;12.210;2023-07-16T09:07:18;97575.28;;;33.08;100.00
74868;BME280;63419;42.262;12.210;2023-07-16T09:09:59;97553.50;;;34.28;100.00
74868;BME280;63419;42.262;12.210;2023-07-16T09:12:26;97543.63;;;35.10;100.00
74868;BME280;63419;42.262;12.210;2023-07-16T09:14:53;97543.22;;;34.42;100.00
74868;BME280;63419;42.262;12.210;2023-07-16T09:17:23;97550.00;;;34.05;100.00
74868;BME280;63419;42.262;12.210;2023-07-16T09:19:51;97540.28;;;34.65;100.00
74868;BME280;63419;42.262;12.210;2023-07-16T09:22:20;97550.78;;;34.23;100.00
74868;BME280;63419;42.262;12.210;2023-07-16T09:24:47;97558.13;;;33.71;100.00
74868;BME280;63419;42.262;12.210;2023-07-16T09:27:13;97569.16;;;33.24;100.00
74868;BME280;63419;42.262;12.210;2023-07-16T09:29:40;97529.13;;;35.43;100.00
74868;BME280;63419;42.262;12.210;2023-07-16T09:32:06;97525.44;;;35.50;100.00
74868;BME280;63419;42.262;12.210;2023-07-16T09:34:32;97557.63;;;33.57;100.00
74868;BME280;63419;42.262;12.210;2023-07-16T09:37:00;97528.00;;;35.34;100.00
74868;BME280;63419;42.262;12.210;2023-07-16T09:39:27;97507.13;;;36.78;100.00
74868;BME280;63419;42.262;12.210;2023-07-16T09:41:54;97535.78;;;35.36;100.00
74868;BME280;63419;42.262;12.210;2023-07-16T09:44:22;97532.09;;;35.47;100.00
74868;BME280;63419;42.262;12.210;2023-07-16T09:46:48;97517.03;;;36.67;100.00
74868;BME280;63419;42.262;12.210;2023-07-16T09:49:15;97504.56;;;37.84;100.00
74868;BME280;63419;42.262;12.210;2023-07-16T09:51:43;97520.81;;;37.48;100.00
74868;BME280;63419;42.262;12.210;2023-07-16T09:54:13;97564.84;;;34.35;100.00
74868;BME280;63419;42.262;12.210;2023-07-16T09:56:48;97538.56;;;35.89;100.00
74868;BME280;63419;42.262;12.210;2023-07-16T09:59:19;97564.94;;;34.45;100.00
74868;BME280;63419;42.262;12.210;2023-07-16T10:01:46;97580.25;;;33.67;100.00
74868;BME280;63419;42.262;12.210;2023-07-16T10:04:18;97562.31;;;34.50;100.00
74868;BME280;63419;42.262;12.210;2023-07-16T10:06:59;97546.00;;;35.76;100.00
74868;BME280;63419;42.262;12.210;2023-07-16T10:09:40;97565.25;;;34.71;100.00
74868;BME280;63419;42.262;12.210;2023-07-16T10:12:26;97572.84;;;34.57;100.00
74868;BME280;63419;42.262;12.210;2023-07-16T10:14:56;97552.84;;;35.57;100.00
74868;BME280;63419;42.262;12.210;2023-07-16T10:17:31;97562.03;;;35.29;100.00
74868;BME280;63419;42.262;12.210;2023-07-16T10:24:58;97518.91;;;37.59;100.00
74868;BME280;63419;42.262;12.210;2023-07-16T10:27:32;97539.88;;;36.54;100.00
74868;BME280;63419;42.262;12.210;2023-07-16T10:30:02;97583.50;;;34.08;100.00
74868;BME280;63419;42.262;12.210;2023-07-16T10:32:32;97535.91;;;37.03;100.00
74868;BME280;63419;42.262;12.210;2023-07-16T10:34:58;97538.06;;;37.22;100.00
74868;BME280;63419;42.262;12.210;2023-07-16T10:37:25;97570.25;;;35.54;100.00
74868;BME280;63419;42.262;12.210;2023-07-16T10:39:57;97566.38;;;35.40;100.00
74868;BME280;63419;42.262;12.210;2023-07-16T10:42:26;97537.53;;;37.35;100.00
74868;BME280;63419;42.262;12.210;2023-07-16T10:45:03;97575.16;;;34.70;100.00
74868;BME280;63419;42.262;12.210;2023-07-16T10:47:37;97519.34;;;38.92;100.00
74868;BME280;63419;42.262;12.210;2023-07-16T10:50:06;97556.28;;;36.68;100.00
74868;BME280;63419;42.262;12.210;2023-07-16T10:52:36;97550.38;;;36.71;100.00
74868;BME280;63419;42.262;12.210;2023-07-16T10:55:06;97513.28;;;38.76;100.00
74868;BME280;63419;42.262;12.210;2023-07-16T10:57:32;97504.50;;;39.23;100.00
74868;BME280;63419;42.262;12.210;2023-07-16T10:59:59;97497.59;;;39.95;100.00
74868;BME280;63419;42.262;12.210;2023-07-16T11:02:26;97485.69;;;41.93;100.00
74868;BME280;63419;42.262;12.210;2023-07-16T11:04:53;97461.63;;;43.67;100.00
74868;BME280;63419;42.262;12.210;2023-07-16T11:07:20;97477.47;;;42.71;100.00
74868;BME280;63419;42.262;12.210;2023-07-16T11:09:53;97486.91;;;41.13;100.00
74868;BME280;63419;42.262;12.210;2023-07-16T11:12:22;97479.13;;;41.94;100.00
74868;BME280;63419;42.262;12.210;2023-07-16T11:14:53;97496.22;;;40.73;100.00
74868;BME280;63419;42.262;12.210;2023-07-16T11:17:21;97540.19;;;37.45;100.00
74868;BME280;63419;42.262;12.210;2023-07-16T11:19:52;97550.28;;;36.30;100.00
74868;BME280;63419;42.262;12.210;2023-07-16T11:22:19;97487.28;;;40.92;100.00
74868;BME280;63419;42.262;12.210;2023-07-16T11:24:47;97477.13;;;42.00;100.00
74868;BME280;63419;42.262;12.210;2023-07-16T11:27:27;97440.47;;;44.65;100.00
74868;BME280;63419;42.262;12.210;2023-07-16T11:29:57;97515.06;;;39.20;100.00
74868;BME280;63419;42.262;12.210;2023-07-16T11:32:37;97524.19;;;37.95;100.00
74868;BME280;63419;42.262;12.210;2023-07-16T11:35:14;97539.13;;;37.05;100.00
74868;BME280;63419;42.262;12.210;2023-07-16T11:37:41;97499.84;;;39.34;100.00
74868;BME280;63419;42.262;12.210;2023-07-16T11:40:09;97453.91;;;42.81;100.00
74868;BME280;63419;42.262;12.210;2023-07-16T11:42:40;97446.84;;;43.02;100.00
74868;BME280;63419;42.262;12.210;2023-07-16T11:45:25;97468.41;;;41.89;100.00
74868;BME280;63419;42.262;12.210;2023-07-16T11:47:55;97512.34;;;38.56;100.00
74868;BME280;63419;42.262;12.210;2023-07-16T11:50:21;97525.63;;;37.57;100.00
74868;BME280;63419;42.262;12.210;2023-07-16T11:52:55;97545.28;;;36.75;100.00
74868;BME280;63419;42.262;12.210;2023-07-16T11:55:22;97517.25;;;38.83;100.00
74868;BME280;63419;42.262;12.210;2023-07-16T11:57:48;97511.81;;;38.49;100.00
74868;BME280;63419;42.262;12.210;2023-07-16T12:00:15;97521.44;;;38.16;100.00
74868;BME280;63419;42.262;12.210;2023-07-16T12:02:40;97493.97;;;39.27;100.00
74868;BME280;63419;42.262;12.210;2023-07-16T12:05:07;97478.25;;;40.83;100.00
74868;BME280;63419;42.262;12.210;2023-07-16T12:07:38;97483.44;;;40.79;100.00
74868;BME280;63419;42.262;12.210;2023-07-16T12:10:06;97448.34;;;43.48;100.00
74868;BME280;63419;42.262;12.210;2023-07-16T12:12:33;97524.56;;;37.68;100.00
74868;BME280;63419;42.262;12.210;2023-07-16T12:15:07;97523.53;;;37.07;100.00
74868;BME280;63419;42.262;12.210;2023-07-16T12:17:34;97507.97;;;38.05;100.00
74868;BME280;63419;42.262;12.210;2023-07-16T12:20:01;97528.97;;;36.18;100.00
74868;BME280;63419;42.262;12.210;2023-07-16T12:22:27;97491.00;;;38.94;100.00
74868;BME280;63419;42.262;12.210;2023-07-16T12:24:53;97479.50;;;40.52;100.00
74868;BME280;63419;42.262;12.210;2023-07-16T12:27:19;97420.66;;;44.56;100.00
74868;BME280;63419;42.262;12.210;2023-07-16T12:29:45;97404.75;;;46.04;100.00
74868;BME280;63419;42.262;12.210;2023-07-16T12:32:13;97426.91;;;45.13;100.00
74868;BME280;63419;42.262;12.210;2023-07-16T12:34:39;97447.34;;;43.44;100.00
74868;BME280;63419;42.262;12.210;2023-07-16T12:37:05;97492.19;;;40.33;100.00
74868;BME280;63419;42.262;12.210;2023-07-16T12:39:32;97483.50;;;41.07;100.00
74868;BME280;63419;42.262;12.210;2023-07-16T12:41:58;97483.69;;;41.10;100.00
74868;BME280;63419;42.262;12.210;2023-07-16T12:44:24;97445.94;;;43.47;100.00
74868;BME280;63419;42.262;12.210;2023-07-16T12:46:50;97472.75;;;42.27;100.00
74868;BME280;63419;42.262;12.210;2023-07-16T12:49:16;97454.88;;;42.85;100.00
74868;BME280;63419;42.262;12.210;2023-07-16T12:51:42;97526.50;;;38.72;100.00
74868;BME280;63419;42.262;12.210;2023-07-16T12:54:08;97512.41;;;39.49;100.00
74868;BME280;63419;42.262;12.210;2023-07-16T12:56:34;97515.88;;;39.50;100.00